sensor_id;sensor_type;location;lat;lon;timestamp;pressure;altitude;pressure_sealevel;temperature;humidity
59043;BME280;44826;51.596;5.624;2023-03-23T00:01:19;100166.66;;;10.39;92.41
59043;BME280;44826;51.596;5.624;2023-03-23T00:03:47;100165.75;;;10.40;92.40
59043;BME280;44826;51.596;5.624;2023-03-23T00:06:13;100151.88;;;10.40;92.35
59043;BME280;44826;51.596;5.624;2023-03-23T00:08:43;100169.19;;;10.41;92.26
59043;BME280;44826;51.596;5.624;2023-03-23T00:11:17;100186.50;;;10.42;92.40
59043;BME280;44826;51.596;5.624;2023-03-23T00:13:45;100180.38;;;10.43;92.20
59043;BME280;44826;51.596;5.624;2023-03-23T00:16:12;100171.63;;;10.45;92.00
59043;BME280;44826;51.596;5.624;2023-03-23T00:18:48;100151.72;;;10.44;91.78
59043;BME280;44826;51.596;5.624;2023-03-23T00:21:17;100158.59;;;10.47;91.61
59043;BME280;44826;51.596;5.624;2023-03-23T00:23:43;100177.63;;;10.47;91.47
59043;BME280;44826;51.596;5.624;2023-03-23T00:26:09;100194.03;;;10.50;91.74
59043;BME280;44826;51.596;5.624;2023-03-23T00:28:35;100168.75;;;10.53;91.24
59043;BME280;44826;51.596;5.624;2023-03-23T00:31:02;100174.81;;;10.54;91.41
59043;BME280;44826;51.596;5.624;2023-03-23T00:33:30;100174.75;;;10.55;91.15
59043;BME280;44826;51.596;5.624;2023-03-23T00:35:58;100170.41;;;10.56;91.07
59043;BME280;44826;51.596;5.624;2023-03-23T00:38:24;100176.44;;;10.56;91.08
59043;BME280;44826;51.596;5.624;2023-03-23T00:40:50;100175.59;;;10.56;91.14
59043;BME280;44826;51.596;5.624;2023-03-23T00:43:17;100174.69;;;10.57;90.93
59043;BME280;44826;51.596;5.624;2023-03-23T00:45:44;100177.31;;;10.57;90.96
59043;BME280;44826;51.596;5.624;2023-03-23T00:48:10;100178.88;;;10.61;90.60
59043;BME280;44826;51.596;5.624;2023-03-23T00:50:38;100179.72;;;10.61;90.73
59043;BME280;44826;51.596;5.624;2023-03-23T00:53:03;100164.00;;;10.65;90.60
59043;BME280;44826;51.596;5.624;2023-03-23T00:55:28;100155.34;;;10.64;90.77
59043;BME280;44826;51.596;5.624;2023-03-23T00:57:55;100157.91;;;10.66;90.53
59043;BME280;44826;51.596;5.624;2023-03-23T01:00:21;100157.84;;;10.67;90.44
59043;BME280;44826;51.596;5.624;2023-03-23T01:02:47;100157.75;;;10.69;90.43
59043;BME280;44826;51.596;5.624;2023-03-23T01:05:12;100160.34;;;10.70;90.50
59043;BME280;44826;51.596;5.624;2023-03-23T01:07:39;100162.03;;;10.71;91.22
59043;BME280;44826;51.596;5.624;2023-03-23T01:10:05;100164.63;;;10.71;90.57
59043;BME280;44826;51.596;5.624;2023-03-23T01:12:30;100148.13;;;10.72;90.93
59043;BME280;44826;51.596;5.624;2023-03-23T01:14:56;100146.34;;;10.73;90.83
59043;BME280;44826;51.596;5.624;2023-03-23T01:17:21;100149.81;;;10.73;90.93
59043;BME280;44826;51.596;5.624;2023-03-23T01:19:46;100146.41;;;10.71;90.86
59043;BME280;44826;51.596;5.624;2023-03-23T01:22:12;100114.28;;;10.72;90.71
59043;BME280;44826;51.596;5.624;2023-03-23T01:24:37;100100.38;;;10.73;90.52
59043;BME280;44826;51.596;5.624;2023-03-23T01:27:03;100098.69;;;10.72;90.79
59043;BME280;44826;51.596;5.624;2023-03-23T01:29:33;100087.53;;;10.69;90.90
59043;BME280;44826;51.596;5.624;2023-03-23T01:31:58;100111.00;;;10.67;90.65
59043;BME280;44826;51.596;5.624;2023-03-23T01:34:24;100096.25;;;10.68;90.58
59043;BME280;44826;51.596;5.624;2023-03-23T01:36:49;100093.59;;;10.69;90.63
59043;BME280;44826;51.596;5.624;2023-03-23T01:39:14;100091.00;;;10.69;90.63
59043;BME280;44826;51.596;5.624;2023-03-23T01:41:39;100088.38;;;10.69;90.39
59043;BME280;44826;51.596;5.624;2023-03-23T01:45:09;100080.50;;;10.71;90.67
59043;BME280;44826;51.596;5.624;2023-03-23T01:46:53;100098.63;;;10.74;90.44
59043;BME280;44826;51.596;5.624;2023-03-23T01:49:24;100108.97;;;10.75;90.46
59043;BME280;44826;51.596;5.624;2023-03-23T01:51:54;100098.56;;;10.75;90.28
59043;BME280;44826;51.596;5.624;2023-03-23T01:54:22;100102.91;;;10.75;90.46
59043;BME280;44826;51.596;5.624;2023-03-23T01:56:58;100107.13;;;10.77;90.19
59043;BME280;44826;51.596;5.624;2023-03-23T01:59:26;100094.13;;;10.77;90.49
59043;BME280;44826;51.596;5.624;2023-03-23T02:01:54;100095.03;;;10.76;90.19
59043;BME280;44826;51.596;5.624;2023-03-23T02:04:22;100095.81;;;10.78;90.20
59043;BME280;44826;51.596;5.624;2023-03-23T02:06:48;100078.41;;;10.81;89.92
59043;BME280;44826;51.596;5.624;2023-03-23T02:09:14;100067.16;;;10.80;90.00
59043;BME280;44826;51.596;5.624;2023-03-23T02:11:42;100060.19;;;10.81;90.04
59043;BME280;44826;51.596;5.624;2023-03-23T02:14:08;100060.19;;;10.81;89.77
59043;BME280;44826;51.596;5.624;2023-03-23T02:16:52;100071.34;;;10.84;89.72
59043;BME280;44826;51.596;5.624;2023-03-23T02:19:58;100049.66;;;10.84;89.67
59043;BME280;44826;51.596;5.624;2023-03-23T02:25:56;100053.91;;;10.86;89.44
59043;BME280;44826;51.596;5.624;2023-03-23T02:28:30;100052.16;;;10.87;88.98
59043;BME280;44826;51.596;5.624;2023-03-23T02:31:05;100046.94;;;10.87;88.94
59043;BME280;44826;51.596;5.624;2023-03-23T02:33:44;100045.06;;;10.90;88.90
59043;BME280;44826;51.596;5.624;2023-03-23T02:36:23;100052.94;;;10.89;88.42
59043;BME280;44826;51.596;5.624;2023-03-23T02:41:43;100046.03;;;10.88;88.56
59043;BME280;44826;51.596;5.624;2023-03-23T02:44:10;100047.75;;;10.89;88.24
59043;BME280;44826;51.596;5.624;2023-03-23T02:46:39;100035.63;;;10.88;88.51
59043;BME280;44826;51.596;5.624;2023-03-23T02:49:06;100039.97;;;10.87;88.53
59043;BME280;44826;51.596;5.624;2023-03-23T02:51:34;100052.09;;;10.88;88.43
59043;BME280;44826;51.596;5.624;2023-03-23T02:54:03;100043.31;;;10.91;88.00
59043;BME280;44826;51.596;5.624;2023-03-23T02:56:30;100051.06;;;10.92;88.25
59043;BME280;44826;51.596;5.624;2023-03-23T02:58:58;100051.91;;;10.93;87.74
59043;BME280;44826;51.596;5.624;2023-03-23T03:03:54;100052.56;;;10.98;87.62
59043;BME280;44826;51.596;5.624;2023-03-23T03:11:51;100038.53;;;11.02;87.46
59043;BME280;44826;51.596;5.624;2023-03-23T03:14:28;100052.38;;;11.03;87.69
59043;BME280;44826;51.596;5.624;2023-03-23T03:17:11;100050.63;;;11.03;87.45
59043;BME280;44826;51.596;5.624;2023-03-23T03:19:41;100067.94;;;11.04;87.28
59043;BME280;44826;51.596;5.624;2023-03-23T03:22:08;100059.22;;;11.05;87.32
59043;BME280;44826;51.596;5.624;2023-03-23T03:24:35;100047.84;;;11.08;87.03
59043;BME280;44826;51.596;5.624;2023-03-23T03:27:05;100053.81;;;11.10;87.26
59043;BME280;44826;51.596;5.624;2023-03-23T03:29:37;100049.53;;;11.09;87.27
59043;BME280;44826;51.596;5.624;2023-03-23T03:32:08;100067.69;;;11.11;86.97
59043;BME280;44826;51.596;5.624;2023-03-23T03:34:36;100066.78;;;11.12;87.24
59043;BME280;44826;51.596;5.624;2023-03-23T03:37:03;100059.88;;;11.11;87.37
59043;BME280;44826;51.596;5.624;2023-03-23T03:39:33;100056.44;;;11.10;87.05
59043;BME280;44826;51.596;5.624;2023-03-23T03:41:59;100059.94;;;11.09;87.35
59043;BME280;44826;51.596;5.624;2023-03-23T03:44:25;100049.59;;;11.07;87.33
59043;BME280;44826;51.596;5.624;2023-03-23T03:46:50;100050.41;;;11.10;86.75
59043;BME280;44826;51.596;5.624;2023-03-23T03:49:15;100063.41;;;11.10;86.58
59043;BME280;44826;51.596;5.624;2023-03-23T03:51:41;100067.69;;;11.11;86.51
59043;BME280;44826;51.596;5.624;2023-03-23T03:54:07;100058.97;;;11.12;86.37
59043;BME280;44826;51.596;5.624;2023-03-23T03:56:33;100061.56;;;11.12;85.82
59043;BME280;44826;51.596;5.624;2023-03-23T03:59:03;100065.88;;;11.13;85.74
59043;BME280;44826;51.596;5.624;2023-03-23T04:01:28;100064.97;;;11.14;85.62
59043;BME280;44826;51.596;5.624;2023-03-23T04:03:54;100068.41;;;11.14;85.27
59043;BME280;44826;51.596;5.624;2023-03-23T04:06:20;100064.91;;;11.15;84.77
59043;BME280;44826;51.596;5.624;2023-03-23T04:08:46;100064.91;;;11.15;84.55
59043;BME280;44826;51.596;5.624;2023-03-23T04:11:13;100074.34;;;11.18;84.55
59043;BME280;44826;51.596;5.624;2023-03-23T04:13:39;100079.63;;;11.16;84.04
59043;BME280;44826;51.596;5.624;2023-03-23T04:16:05;100076.13;;;11.17;83.61
59043;BME280;44826;51.596;5.624;2023-03-23T04:18:30;100067.44;;;11.17;83.46
59043;BME280;44826;51.596;5.624;2023-03-23T04:20:57;100070.84;;;11.19;83.18
59043;BME280;44826;51.596;5.624;2023-03-23T04:23:25;100081.25;;;11.19;83.06
59043;BME280;44826;51.596;5.624;2023-03-23T04:25:51;100088.22;;;11.18;83.06
59043;BME280;44826;51.596;5.624;2023-03-23T04:28:18;100089.13;;;11.17;82.79
59043;BME280;44826;51.596;5.624;2023-03-23T04:30:49;100088.22;;;11.18;82.29
59043;BME280;44826;51.596;5.624;2023-03-23T04:33:18;100089.97;;;11.18;81.99
59043;BME280;44826;51.596;5.624;2023-03-23T04:35:46;100091.53;;;11.22;81.96
59043;BME280;44826;51.596;5.624;2023-03-23T04:38:14;100090.69;;;11.21;81.51
59043;BME280;44826;51.596;5.624;2023-03-23T04:40:41;100098.56;;;11.20;81.76
59043;BME280;44826;51.596;5.624;2023-03-23T04:43:07;100102.88;;;11.21;81.08
59043;BME280;44826;51.596;5.624;2023-03-23T04:45:33;100098.44;;;11.23;81.31
59043;BME280;44826;51.596;5.624;2023-03-23T04:47:59;100093.25;;;11.23;80.64
59043;BME280;44826;51.596;5.624;2023-03-23T04:50:28;100097.66;;;11.21;80.47
59043;BME280;44826;51.596;5.624;2023-03-23T04:52:56;100093.34;;;11.20;80.81
59043;BME280;44826;51.596;5.624;2023-03-23T04:55:23;100102.88;;;11.21;80.53
59043;BME280;44826;51.596;5.624;2023-03-23T04:57:49;100103.69;;;11.21;79.96
59043;BME280;44826;51.596;5.624;2023-03-23T05:00:14;100095.75;;;11.24;79.58
59043;BME280;44826;51.596;5.624;2023-03-23T05:02:42;100103.56;;;11.24;79.77
59043;BME280;44826;51.596;5.624;2023-03-23T05:05:10;100100.97;;;11.24;79.69
59043;BME280;44826;51.596;5.624;2023-03-23T05:07:36;100113.09;;;11.26;79.71
59043;BME280;44826;51.596;5.624;2023-03-23T05:10:02;100091.28;;;11.28;78.98
59043;BME280;44826;51.596;5.624;2023-03-23T05:12:28;100096.56;;;11.27;79.20
59043;BME280;44826;51.596;5.624;2023-03-23T05:14:53;100108.78;;;11.24;79.23
59043;BME280;44826;51.596;5.624;2023-03-23T05:17:18;100097.59;;;11.22;79.62
59043;BME280;44826;51.596;5.624;2023-03-23T05:19:44;100103.56;;;11.24;79.11
59043;BME280;44826;51.596;5.624;2023-03-23T05:22:15;100091.53;;;11.22;78.90
59043;BME280;44826;51.596;5.624;2023-03-23T05:24:40;100098.56;;;11.20;79.76
59043;BME280;44826;51.596;5.624;2023-03-23T05:27:08;100099.41;;;11.20;79.09
59043;BME280;44826;51.596;5.624;2023-03-23T05:29:34;100099.47;;;11.19;79.41
59043;BME280;44826;51.596;5.624;2023-03-23T05:32:03;100107.28;;;11.19;79.08
59043;BME280;44826;51.596;5.624;2023-03-23T05:34:30;100098.63;;;11.18;78.96
59043;BME280;44826;51.596;5.624;2023-03-23T05:36:58;100108.19;;;11.18;79.02
59043;BME280;44826;51.596;5.624;2023-03-23T05:39:24;100108.25;;;11.16;79.58
59043;BME280;44826;51.596;5.624;2023-03-23T05:41:49;100101.34;;;11.15;79.47
59043;BME280;44826;51.596;5.624;2023-03-23T05:44:15;100103.97;;;11.15;79.09
59043;BME280;44826;51.596;5.624;2023-03-23T05:46:41;100100.50;;;11.15;79.18
59043;BME280;44826;51.596;5.624;2023-03-23T05:49:06;100103.97;;;11.15;79.21
59043;BME280;44826;51.596;5.624;2023-03-23T05:51:32;100097.06;;;11.14;79.21
59043;BME280;44826;51.596;5.624;2023-03-23T05:53:57;100116.22;;;11.12;79.78
59043;BME280;44826;51.596;5.624;2023-03-23T05:56:23;100103.22;;;11.12;79.79
59043;BME280;44826;51.596;5.624;2023-03-23T05:58:49;100111.03;;;11.12;79.37
59043;BME280;44826;51.596;5.624;2023-03-23T06:01:14;100102.56;;;11.06;80.08
59043;BME280;44826;51.596;5.624;2023-03-23T06:03:41;100108.63;;;11.07;80.72
59043;BME280;44826;51.596;5.624;2023-03-23T06:06:09;100118.19;;;11.06;81.13
59043;BME280;44826;51.596;5.624;2023-03-23T06:08:35;100116.53;;;11.04;81.19
59043;BME280;44826;51.596;5.624;2023-03-23T06:11:02;100121.81;;;11.02;81.69
59043;BME280;44826;51.596;5.624;2023-03-23T06:13:27;100113.22;;;11.00;82.33
59043;BME280;44826;51.596;5.624;2023-03-23T06:15:56;100113.34;;;10.97;82.57
59043;BME280;44826;51.596;5.624;2023-03-23T06:18:24;100115.09;;;10.97;82.43
59043;BME280;44826;51.596;5.624;2023-03-23T06:20:50;100133.31;;;10.97;82.25
59043;BME280;44826;51.596;5.624;2023-03-23T06:23:16;100136.75;;;10.97;82.12
59043;BME280;44826;51.596;5.624;2023-03-23T06:25:41;100140.22;;;10.98;82.24
59043;BME280;44826;51.596;5.624;2023-03-23T06:28:07;100148.81;;;11.00;82.19
59043;BME280;44826;51.596;5.624;2023-03-23T06:30:34;100154.03;;;11.00;82.27
59043;BME280;44826;51.596;5.624;2023-03-23T06:33:00;100151.34;;;11.01;82.28
59043;BME280;44826;51.596;5.624;2023-03-23T06:35:25;100156.47;;;11.03;81.91
59043;BME280;44826;51.596;5.624;2023-03-23T06:37:51;100166.84;;;11.04;81.41
59043;BME280;44826;51.596;5.624;2023-03-23T06:40:18;100169.38;;;11.06;81.20
59043;BME280;44826;51.596;5.624;2023-03-23T06:42:44;100168.56;;;11.05;81.20
59043;BME280;44826;51.596;5.624;2023-03-23T06:45:09;100159.84;;;11.06;81.33
59043;BME280;44826;51.596;5.624;2023-03-23T06:47:35;100168.47;;;11.07;81.11
59043;BME280;44826;51.596;5.624;2023-03-23T06:50:00;100180.59;;;11.08;81.08
59043;BME280;44826;51.596;5.624;2023-03-23T06:52:26;100173.66;;;11.08;81.57
59043;BME280;44826;51.596;5.624;2023-03-23T06:54:51;100170.13;;;11.10;80.82
59043;BME280;44826;51.596;5.624;2023-03-23T06:57:18;100183.09;;;11.11;80.70
59043;BME280;44826;51.596;5.624;2023-03-23T06:59:44;100184.81;;;11.11;81.61
59043;BME280;44826;51.596;5.624;2023-03-23T07:02:11;100201.31;;;11.11;82.01
59043;BME280;44826;51.596;5.624;2023-03-23T07:04:37;100200.41;;;11.12;82.02
59043;BME280;44826;51.596;5.624;2023-03-23T07:07:04;100188.41;;;11.08;82.22
59043;BME280;44826;51.596;5.624;2023-03-23T07:09:29;100199.69;;;11.08;81.50
59043;BME280;44826;51.596;5.624;2023-03-23T07:11:54;100198.09;;;11.04;82.41
59043;BME280;44826;51.596;5.624;2023-03-23T07:14:19;100196.38;;;11.03;82.25
59043;BME280;44826;51.596;5.624;2023-03-23T07:16:46;100203.28;;;11.04;82.66
59043;BME280;44826;51.596;5.624;2023-03-23T07:19:12;100200.81;;;11.01;82.99
59043;BME280;44826;51.596;5.624;2023-03-23T07:21:37;100212.13;;;11.00;82.68
59043;BME280;44826;51.596;5.624;2023-03-23T07:24:03;100210.41;;;10.99;82.95
59043;BME280;44826;51.596;5.624;2023-03-23T07:26:28;100214.03;;;10.95;83.94
59043;BME280;44826;51.596;5.624;2023-03-23T07:28:53;100227.22;;;10.90;84.51
59043;BME280;44826;51.596;5.624;2023-03-23T07:31:18;100224.81;;;10.86;85.35
59043;BME280;44826;51.596;5.624;2023-03-23T07:33:44;100212.88;;;10.80;86.14
59043;BME280;44826;51.596;5.624;2023-03-23T07:36:09;100222.59;;;10.75;87.00
59043;BME280;44826;51.596;5.624;2023-03-23T07:38:35;100227.88;;;10.73;86.84
59043;BME280;44826;51.596;5.624;2023-03-23T07:41:02;100226.53;;;10.61;86.29
59043;BME280;44826;51.596;5.624;2023-03-23T07:43:28;100231.91;;;10.57;87.04
59043;BME280;44826;51.596;5.624;2023-03-23T07:45:53;100239.03;;;10.52;88.35
59043;BME280;44826;51.596;5.624;2023-03-23T07:48:19;100242.47;;;10.52;87.95
59043;BME280;44826;51.596;5.624;2023-03-23T07:50:44;100259.91;;;10.50;87.78
59043;BME280;44826;51.596;5.624;2023-03-23T07:53:10;100266.28;;;10.41;86.65
59043;BME280;44826;51.596;5.624;2023-03-23T07:55:35;100259.84;;;10.25;86.93
59043;BME280;44826;51.596;5.624;2023-03-23T07:58:00;100234.34;;;10.09;85.76
59043;BME280;44826;51.596;5.624;2023-03-23T08:00:26;100233.78;;;10.01;85.85
59043;BME280;44826;51.596;5.624;2023-03-23T08:02:54;100242.72;;;9.92;85.94
59043;BME280;44826;51.596;5.624;2023-03-23T08:05:24;100245.56;;;9.84;86.10
59043;BME280;44826;51.596;5.624;2023-03-23T08:07:52;100253.53;;;9.80;86.69
59043;BME280;44826;51.596;5.624;2023-03-23T08:10:19;100263.16;;;9.76;87.55
59043;BME280;44826;51.596;5.624;2023-03-23T08:12:46;100266.75;;;9.72;87.62
59043;BME280;44826;51.596;5.624;2023-03-23T08:15:13;100258.16;;;9.70;87.74
59043;BME280;44826;51.596;5.624;2023-03-23T08:17:40;100259.06;;;9.69;87.93
59043;BME280;44826;51.596;5.624;2023-03-23T08:20:05;100259.97;;;9.66;88.44
59043;BME280;44826;51.596;5.624;2023-03-23T08:22:35;100266.94;;;9.66;88.52
59043;BME280;44826;51.596;5.624;2023-03-23T08:25:02;100262.66;;;9.65;89.42
59043;BME280;44826;51.596;5.624;2023-03-23T08:27:28;100272.03;;;9.69;89.24
59043;BME280;44826;51.596;5.624;2023-03-23T08:29:54;100277.03;;;9.75;88.54
59043;BME280;44826;51.596;5.624;2023-03-23T08:32:19;100270.75;;;9.82;88.67
59043;BME280;44826;51.596;5.624;2023-03-23T08:34:44;100286.25;;;9.85;88.00
59043;BME280;44826;51.596;5.624;2023-03-23T08:37:10;100274.88;;;9.90;87.49
59043;BME280;44826;51.596;5.624;2023-03-23T08:39:35;100285.19;;;9.91;87.20
59043;BME280;44826;51.596;5.624;2023-03-23T08:42:00;100286.94;;;9.91;87.18
59043;BME280;44826;51.596;5.624;2023-03-23T08:44:26;100274.75;;;9.93;87.53
59043;BME280;44826;51.596;5.624;2023-03-23T08:46:51;100268.56;;;9.97;86.46
59043;BME280;44826;51.596;5.624;2023-03-23T08:49:22;100275.38;;;9.99;86.24
59043;BME280;44826;51.596;5.624;2023-03-23T08:51:47;100272.75;;;10.01;85.48
59043;BME280;44826;51.596;5.624;2023-03-23T08:54:13;100266.69;;;10.00;84.97
59043;BME280;44826;51.596;5.624;2023-03-23T08:56:38;100276.19;;;10.01;84.95
59043;BME280;44826;51.596;5.624;2023-03-23T08:59:04;100277.88;;;10.04;84.89
59043;BME280;44826;51.596;5.624;2023-03-23T09:01:29;100280.38;;;10.07;84.49
59043;BME280;44826;51.596;5.624;2023-03-23T09:03:55;100282.97;;;10.07;84.25
59043;BME280;44826;51.596;5.624;2023-03-23T09:06:21;100283.81;;;10.08;84.10
59043;BME280;44826;51.596;5.624;2023-03-23T09:08:46;100277.63;;;10.12;84.84
59043;BME280;44826;51.596;5.624;2023-03-23T09:11:11;100280.84;;;10.18;84.64
59043;BME280;44826;51.596;5.624;2023-03-23T09:13:38;100285.00;;;10.24;84.85
59043;BME280;44826;51.596;5.624;2023-03-23T09:16:04;100284.03;;;10.27;84.14
59043;BME280;44826;51.596;5.624;2023-03-23T09:18:30;100279.72;;;10.26;83.58
59043;BME280;44826;51.596;5.624;2023-03-23T09:20:58;100269.41;;;10.24;83.51
59043;BME280;44826;51.596;5.624;2023-03-23T09:23:23;100252.72;;;10.30;84.15
59043;BME280;44826;51.596;5.624;2023-03-23T09:25:49;100263.78;;;10.38;84.46
59043;BME280;44826;51.596;5.624;2023-03-23T09:28:16;100259.13;;;10.46;84.07
59043;BME280;44826;51.596;5.624;2023-03-23T09:30:41;100281.53;;;10.51;83.31
59043;BME280;44826;51.596;5.624;2023-03-23T09:33:07;100281.53;;;10.51;84.31
59043;BME280;44826;51.596;5.624;2023-03-23T09:35:34;100285.84;;;10.52;83.04
59043;BME280;44826;51.596;5.624;2023-03-23T09:38:01;100293.84;;;10.45;82.16
59043;BME280;44826;51.596;5.624;2023-03-23T09:40:32;100283.75;;;10.36;82.62
59043;BME280;44826;51.596;5.624;2023-03-23T09:54:08;100302.38;;;10.22;83.76
59043;BME280;44826;51.596;5.624;2023-03-23T09:56:35;100298.81;;;10.25;84.43
59043;BME280;44826;51.596;5.624;2023-03-23T09:59:18;100303.09;;;10.27;84.93
59043;BME280;44826;51.596;5.624;2023-03-23T10:01:48;100309.00;;;10.32;84.12
59043;BME280;44826;51.596;5.624;2023-03-23T10:04:33;100301.88;;;10.38;85.12
59043;BME280;44826;51.596;5.624;2023-03-23T10:07:08;100314.66;;;10.45;85.64
59043;BME280;44826;51.596;5.624;2023-03-23T10:09:35;100326.66;;;10.50;84.82
59043;BME280;44826;51.596;5.624;2023-03-23T10:15:01;100329.84;;;10.58;83.96
59043;BME280;44826;51.596;5.624;2023-03-23T10:17:36;100309.06;;;10.58;85.07
59043;BME280;44826;51.596;5.624;2023-03-23T10:20:19;100315.72;;;10.65;84.31
59043;BME280;44826;51.596;5.624;2023-03-23T10:26:04;100322.19;;;10.78;84.57
59043;BME280;44826;51.596;5.624;2023-03-23T10:28:39;100326.34;;;10.84;84.02
59043;BME280;44826;51.596;5.624;2023-03-23T10:31:11;100332.19;;;10.91;83.14
59043;BME280;44826;51.596;5.624;2023-03-23T10:33:41;100334.44;;;11.00;82.78
59043;BME280;44826;51.596;5.624;2023-03-23T10:36:25;100334.91;;;11.12;83.17
59043;BME280;44826;51.596;5.624;2023-03-23T10:39:10;100334.47;;;11.24;83.70
59043;BME280;44826;51.596;5.624;2023-03-23T10:41:36;100338.25;;;11.39;82.95
59043;BME280;44826;51.596;5.624;2023-03-23T10:44:10;100336.94;;;11.51;81.48
59043;BME280;44826;51.596;5.624;2023-03-23T10:46:43;100346.78;;;11.66;82.89
59043;BME280;44826;51.596;5.624;2023-03-23T10:49:18;100351.53;;;11.79;81.33
59043;BME280;44826;51.596;5.624;2023-03-23T10:51:47;100345.97;;;11.88;80.70
59043;BME280;44826;51.596;5.624;2023-03-23T10:54:26;100344.16;;;11.90;79.99
59043;BME280;44826;51.596;5.624;2023-03-23T10:56:51;100340.38;;;11.97;78.86
59043;BME280;44826;51.596;5.624;2023-03-23T10:59:26;100343.44;;;12.09;79.94
59043;BME280;44826;51.596;5.624;2023-03-23T11:01:54;100348.41;;;12.15;78.57
59043;BME280;44826;51.596;5.624;2023-03-23T11:04:20;100330.75;;;12.22;78.69
59043;BME280;44826;51.596;5.624;2023-03-23T11:06:59;100330.47;;;12.29;78.77
59043;BME280;44826;51.596;5.624;2023-03-23T11:09:50;100331.88;;;12.37;79.36
59043;BME280;44826;51.596;5.624;2023-03-23T11:12:20;100331.75;;;12.40;78.12
59043;BME280;44826;51.596;5.624;2023-03-23T11:14:45;100339.34;;;12.46;78.21
59043;BME280;44826;51.596;5.624;2023-03-23T11:17:25;100331.25;;;12.52;78.03
59043;BME280;44826;51.596;5.624;2023-03-23T11:19:52;100332.56;;;12.63;78.27
59043;BME280;44826;51.596;5.624;2023-03-23T11:22:32;100321.84;;;12.69;77.62
59043;BME280;44826;51.596;5.624;2023-03-23T11:25:03;100334.50;;;12.78;76.68
59043;BME280;44826;51.596;5.624;2023-03-23T11:27:29;100333.44;;;12.82;75.30
59043;BME280;44826;51.596;5.624;2023-03-23T11:30:08;100335.31;;;12.80;75.16
59043;BME280;44826;51.596;5.624;2023-03-23T11:32:34;100345.66;;;12.82;75.36
59043;BME280;44826;51.596;5.624;2023-03-23T11:35:05;100343.63;;;12.88;75.26
59043;BME280;44826;51.596;5.624;2023-03-23T11:37:53;100339.69;;;12.99;75.82
59043;BME280;44826;51.596;5.624;2023-03-23T11:40:24;100348.06;;;13.07;73.86
59043;BME280;44826;51.596;5.624;2023-03-23T11:43:08;100348.88;;;13.08;74.76
59043;BME280;44826;51.596;5.624;2023-03-23T11:45:37;100354.28;;;13.04;72.92
59043;BME280;44826;51.596;5.624;2023-03-23T11:48:33;100349.31;;;12.98;74.01
59043;BME280;44826;51.596;5.624;2023-03-23T11:54:19;100346.47;;;13.03;74.59
59043;BME280;44826;51.596;5.624;2023-03-23T11:56:47;100351.56;;;13.06;73.14
59043;BME280;44826;51.596;5.624;2023-03-23T11:59:25;100357.63;;;13.06;72.95
59043;BME280;44826;51.596;5.624;2023-03-23T12:04:40;100339.41;;;13.26;72.67
59043;BME280;44826;51.596;5.624;2023-03-23T12:12:26;100327.75;;;13.71;71.58
59043;BME280;44826;51.596;5.624;2023-03-23T12:17:54;100321.97;;;14.01;71.00
59043;BME280;44826;51.596;5.624;2023-03-23T12:20:43;100321.28;;;13.98;69.70
59043;BME280;44826;51.596;5.624;2023-03-23T12:23:24;100335.06;;;14.01;68.05
59043;BME280;44826;51.596;5.624;2023-03-23T12:26:06;100328.25;;;14.16;66.41
59043;BME280;44826;51.596;5.624;2023-03-23T12:28:53;100329.31;;;14.30;67.00
59043;BME280;44826;51.596;5.624;2023-03-23T12:34:07;100317.88;;;14.32;65.45
59043;BME280;44826;51.596;5.624;2023-03-23T12:40:06;100297.69;;;14.69;66.06
59043;BME280;44826;51.596;5.624;2023-03-23T12:45:55;100303.22;;;14.63;63.76
59043;BME280;44826;51.596;5.624;2023-03-23T12:48:22;100289.22;;;14.64;63.87
59043;BME280;44826;51.596;5.624;2023-03-23T12:51:14;100296.91;;;14.67;65.04
59043;BME280;44826;51.596;5.624;2023-03-23T12:56:30;100275.41;;;14.61;65.36
59043;BME280;44826;51.596;5.624;2023-03-23T13:04:55;100271.69;;;14.49;64.81
59043;BME280;44826;51.596;5.624;2023-03-23T13:07:28;100281.66;;;14.58;66.90
59043;BME280;44826;51.596;5.624;2023-03-23T13:10:05;100309.56;;;14.77;64.68
59043;BME280;44826;51.596;5.624;2023-03-23T13:12:32;100301.75;;;15.09;63.77
59043;BME280;44826;51.596;5.624;2023-03-23T13:15:22;100305.44;;;15.38;65.01
59043;BME280;44826;51.596;5.624;2023-03-23T13:18:11;100298.09;;;15.61;63.61
59043;BME280;44826;51.596;5.624;2023-03-23T13:20:45;100298.66;;;15.82;62.27
59043;BME280;44826;51.596;5.624;2023-03-23T13:23:20;100295.53;;;15.91;62.70
59043;BME280;44826;51.596;5.624;2023-03-23T13:26:06;100300.09;;;16.04;62.40
59043;BME280;44826;51.596;5.624;2023-03-23T13:28:47;100284.56;;;16.15;59.49
59043;BME280;44826;51.596;5.624;2023-03-23T13:31:15;100300.00;;;16.05;59.27
59043;BME280;44826;51.596;5.624;2023-03-23T13:33:52;100299.78;;;15.94;61.33
59043;BME280;44826;51.596;5.624;2023-03-23T13:36:28;100281.13;;;15.83;59.74
59043;BME280;44826;51.596;5.624;2023-03-23T13:38:54;100294.09;;;15.70;60.05
59043;BME280;44826;51.596;5.624;2023-03-23T13:41:21;100287.78;;;15.58;60.99
59043;BME280;44826;51.596;5.624;2023-03-23T13:43:47;100287.09;;;15.38;60.93
59043;BME280;44826;51.596;5.624;2023-03-23T13:46:26;100284.63;;;15.19;62.18
59043;BME280;44826;51.596;5.624;2023-03-23T13:51:47;100301.97;;;14.88;63.39
59043;BME280;44826;51.596;5.624;2023-03-23T13:54:39;100319.19;;;14.59;64.86
59043;BME280;44826;51.596;5.624;2023-03-23T13:57:48;100335.47;;;14.29;66.59
59043;BME280;44826;51.596;5.624;2023-03-23T14:10:36;100338.34;;;13.30;71.73
59043;BME280;44826;51.596;5.624;2023-03-23T14:13:05;100337.91;;;13.20;71.55
59043;BME280;44826;51.596;5.624;2023-03-23T14:15:40;100328.66;;;13.13;71.53
59043;BME280;44826;51.596;5.624;2023-03-23T14:18:13;100314.75;;;13.12;72.77